UAL5960 KLEX-KMIA
Flight info
| Callsign | UAL5960 |
|---|---|
| Flight time | N/A |
| Altitude | 40000 |
| Route | VXV THRSR HONID FROGZ5 |
| Aircraft | B78X/H-SDE1E2E3FGHIJ2J3J4J5M1RWXY/LB1D1 |
Departure
| Time | 2026-05-01 11:03 |
|---|---|
| Airport | Blue Grass Airport (KLEX) |
Arrival
| Time | N/A |
|---|---|
| Airport | Miami International Airport (KMIA) |
| Time | Latitude | Longitude | Altitude | Speed | Heading |
|---|---|---|---|---|---|
| 2026-05-01 10:26 | 38.03668 | -84.59993 | 953 ft | 0 kts | 131° |
| 2026-05-01 10:49 | 38.03676 | -84.60003 | 957 ft | 4 kts | 119° |
| 2026-05-01 10:49 | 38.03680 | -84.60032 | 953 ft | 4 kts | 70° |
| 2026-05-01 10:49 | 38.03672 | -84.60063 | 953 ft | 3 kts | 91° |
| 2026-05-01 10:49 | 38.03671 | -84.60086 | 952 ft | 4 kts | 45° |
| 2026-05-01 10:50 | 38.03649 | -84.60097 | 952 ft | 4 kts | 0° |
| 2026-05-01 10:50 | 38.03629 | -84.60095 | 952 ft | 1 kts | 349° |
| 2026-05-01 10:50 | 38.03626 | -84.60094 | 952 ft | 0 kts | 349° |
| 2026-05-01 10:53 | 38.03641 | -84.60098 | 952 ft | 4 kts | 349° |
| 2026-05-01 10:54 | 38.03681 | -84.60107 | 954 ft | 8 kts | 351° |
| 2026-05-01 10:54 | 38.03712 | -84.60148 | 952 ft | 7 kts | 283° |
| 2026-05-01 10:54 | 38.03711 | -84.60230 | 954 ft | 11 kts | 265° |
| 2026-05-01 10:54 | 38.03719 | -84.60280 | 953 ft | 0 kts | 288° |
| 2026-05-01 10:55 | 38.03720 | -84.60281 | 952 ft | 1 kts | 288° |
| 2026-05-01 10:55 | 38.03726 | -84.60306 | 950 ft | 5 kts | 289° |
| 2026-05-01 10:56 | 38.03747 | -84.60347 | 953 ft | 6 kts | 306° |
| 2026-05-01 10:56 | 38.03777 | -84.60393 | 952 ft | 7 kts | 311° |
| 2026-05-01 10:56 | 38.03808 | -84.60450 | 950 ft | 8 kts | 282° |
| 2026-05-01 10:56 | 38.03791 | -84.60504 | 950 ft | 7 kts | 237° |
| 2026-05-01 10:57 | 38.03751 | -84.60560 | 949 ft | 10 kts | 224° |
| 2026-05-01 10:57 | 38.03689 | -84.60615 | 950 ft | 10 kts | 202° |
| 2026-05-01 10:57 | 38.03681 | -84.60618 | 951 ft | 0 kts | 198° |
| 2026-05-01 10:58 | 38.03676 | -84.60617 | 950 ft | 1 kts | 180° |
| 2026-05-01 10:58 | 38.03665 | -84.60611 | 949 ft | 5 kts | 162° |
| 2026-05-01 10:58 | 38.03625 | -84.60571 | 951 ft | 11 kts | 133° |
| 2026-05-01 10:59 | 38.03588 | -84.60476 | 951 ft | 11 kts | 79° |
| 2026-05-01 10:59 | 38.03629 | -84.60401 | 949 ft | 10 kts | 53° |
| 2026-05-01 10:59 | 38.03670 | -84.60326 | 951 ft | 11 kts | 55° |
| 2026-05-01 10:59 | 38.03721 | -84.60259 | 950 ft | 10 kts | 41° |
| 2026-05-01 11:00 | 38.03770 | -84.60203 | 956 ft | 10 kts | 43° |
| 2026-05-01 11:00 | 38.03821 | -84.60143 | 952 ft | 10 kts | 42° |
| 2026-05-01 11:00 | 38.03877 | -84.60078 | 955 ft | 12 kts | 41° |
| 2026-05-01 11:00 | 38.03946 | -84.60002 | 957 ft | 14 kts | 41° |
| 2026-05-01 11:01 | 38.04024 | -84.59916 | 958 ft | 16 kts | 40° |
| 2026-05-01 11:01 | 38.04116 | -84.59840 | 959 ft | 16 kts | 6° |
| 2026-05-01 11:01 | 38.04168 | -84.59863 | 959 ft | 0 kts | 326° |
| 2026-05-01 11:02 | 38.04173 | -84.59873 | 959 ft | 2 kts | 309° |
| 2026-05-01 11:02 | 38.04180 | -84.59897 | 963 ft | 4 kts | 281° |
| 2026-05-01 11:02 | 38.04168 | -84.59938 | 960 ft | 6 kts | 237° |
| 2026-05-01 11:02 | 38.04158 | -84.59954 | 959 ft | 4 kts | 231° |
| 2026-05-01 11:03 | 38.04048 | -84.60081 | 955 ft | 53 kts | 221° |
| 2026-05-01 11:03 | 38.03524 | -84.60668 | 947 ft | 145 kts | 221° |
| 2026-05-01 11:03 | 38.02595 | -84.61688 | 1281 ft | 199 kts | 214° |
| 2026-05-01 11:03 | 38.01508 | -84.62793 | 2024 ft | 201 kts | 214° |
| 2026-05-01 11:04 | 38.00243 | -84.63589 | 3064 ft | 201 kts | 198° |
| 2026-05-01 11:04 | 37.98858 | -84.63875 | 3964 ft | 206 kts | 185° |
| 2026-05-01 11:04 | 37.97363 | -84.63600 | 4781 ft | 227 kts | 165° |
| 2026-05-01 11:04 | 37.95911 | -84.62686 | 5796 ft | 238 kts | 152° |
| 2026-05-01 11:05 | 37.94442 | -84.61563 | 6582 ft | 253 kts | 152° |
| 2026-05-01 11:05 | 37.92913 | -84.60401 | 7521 ft | 259 kts | 153° |
| 2026-05-01 11:05 | 37.91333 | -84.59209 | 8342 ft | 269 kts | 152° |
| 2026-05-01 11:05 | 37.89710 | -84.58002 | 9266 ft | 273 kts | 156° |
| 2026-05-01 11:06 | 37.87976 | -84.56891 | 9541 ft | 295 kts | 163° |
| 2026-05-01 11:06 | 37.86012 | -84.56572 | 9724 ft | 274 kts | 179° |
| 2026-05-01 11:06 | 37.84122 | -84.56230 | 10283 ft | 280 kts | 184° |